Time;durP1;ratioP1;P1;durP2;ratioP2;P2;SDS_P1;SDS_P2;PMS_P1;PMS_P2;Temp;Humidity;BMP_temperature;BMP_pressure;BME280_temperature;BME280_humidity;BME280_pressure;Samples;Min_cycle;Max_cycle;Signal;HPM_P1;HPM_P2
2023/09/01 00:13:39;;;;;;;34.10;14.60;;;;;;;19.08;100.00;100662.39;102654;1295;600828;-50
2023/09/01 00:16:07;;;;;;;28.90;14.20;;;;;;;19.07;100.00;100626.62;104813;1272;61681;-50
2023/09/01 00:18:36;;;;;;;32.20;16.00;;;;;;;19.04;100.00;100629.02;104820;1270;59362;-51
2023/09/01 00:21:04;;;;;;;28.70;13.60;;;;;;;19.00;100.00;100628.70;104824;1270;71057;-52
2023/09/01 00:23:32;;;;;;;33.50;15.10;;;;;;;18.94;100.00;100630.39;104812;1267;63106;-51
2023/09/01 00:26:00;;;;;;;36.90;14.70;;;;;;;18.87;100.00;100630.89;104827;1267;71439;-53
2023/09/01 00:28:28;;;;;;;29.80;14.70;;;;;;;18.82;100.00;100622.95;104924;1269;226036;-53
2023/09/01 00:30:58;;;;;;;24.60;14.50;;;;;;;18.76;100.00;100613.25;104996;1269;59282;-53
2023/09/01 00:33:29;;;;;;;30.50;15.40;;;;;;;18.72;100.00;100607.16;104843;1264;70955;-51
2023/09/01 00:35:58;;;;;;;27.30;15.00;;;;;;;18.70;100.00;100596.98;105628;1260;63142;-51
2023/09/01 00:38:26;;;;;;;31.60;15.40;;;;;;;18.66;100.00;100586.98;105647;1260;71792;-51
2023/09/01 00:40:53;;;;;;;27.60;14.60;;;;;;;18.65;100.00;100576.40;105593;1262;60411;-53
2023/09/01 00:43:21;;;;;;;41.10;14.90;;;;;;;18.65;100.00;100563.11;105633;1257;60008;-52
2023/09/01 00:45:49;;;;;;;24.60;15.20;;;;;;;18.67;100.00;100545.88;105609;1260;72056;-57
2023/09/01 00:48:17;;;;;;;27.90;14.30;;;;;;;18.70;100.00;100534.39;105316;1257;64176;-52
2023/09/01 00:50:49;;;;;;;32.00;13.80;;;;;;;18.75;100.00;100524.20;105568;1261;71395;-55
2023/09/01 00:53:18;;;;;;;31.80;14.80;;;;;;;18.80;100.00;100506.63;105598;1258;60886;-50
2023/09/01 00:55:45;;;;;;;27.40;14.50;;;;;;;18.85;100.00;100492.55;105625;1257;59628;-51
2023/09/01 00:58:13;;;;;;;35.80;15.00;;;;;;;18.91;100.00;100484.70;105581;1260;73040;-50
2023/09/01 01:00:42;;;;;;;32.80;14.60;;;;;;;18.95;100.00;100470.36;105593;1256;63147;-51
2023/09/01 01:03:10;;;;;;;28.80;13.80;;;;;;;18.99;100.00;100458.09;105635;1256;72739;-52
2023/09/01 01:05:44;;;;;;;37.50;14.50;;;;;;;19.02;100.00;100454.64;105534;1264;60588;-51
2023/09/01 01:08:22;;;;;;;29.40;13.70;;;;;;;19.04;100.00;100447.19;105610;1261;59537;-52
2023/09/01 01:11:09;;;;;;;30.90;14.00;;;;;;;19.05;100.00;100442.57;105566;1261;73068;-50
2023/09/01 01:13:40;;;;;;;25.60;13.90;;;;;;;19.06;100.00;100433.77;105563;1258;63431;-52
2023/09/01 01:16:08;;;;;;;27.00;13.20;;;;;;;19.08;100.00;100429.45;105556;1260;71424;-53
2023/09/01 01:18:37;;;;;;;32.60;14.60;;;;;;;19.12;100.00;100424.02;105632;1257;60411;-52
2023/09/01 01:21:07;;;;;;;24.80;12.60;;;;;;;19.15;100.00;100419.81;105561;1260;59616;-52
2023/09/01 01:23:35;;;;;;;32.30;12.70;;;;;;;19.19;100.00;100412.05;105605;1257;71768;-51
2023/09/01 01:26:04;;;;;;;23.90;11.40;;;;;;;19.23;100.00;100402.40;105281;1274;63267;-51
2023/09/01 01:28:33;;;;;;;25.40;12.30;;;;;;;19.31;100.00;100398.16;105547;1258;71680;-52
2023/09/01 01:31:00;;;;;;;23.70;12.20;;;;;;;19.39;100.00;100390.54;105587;1257;60486;-52
2023/09/01 01:33:54;;;;;;;34.30;12.70;;;;;;;19.44;100.00;100385.15;105567;1260;59616;-50
2023/09/01 01:37:00;;;;;;;26.40;11.60;;;;;;;19.48;100.00;100377.77;105552;1260;72002;-50
2023/09/01 01:39:29;;;;;;;33.20;12.60;;;;;;;19.48;100.00;100379.66;105608;1258;63274;-52
2023/09/01 01:42:05;;;;;;;23.30;11.80;;;;;;;19.50;100.00;100383.90;105267;1258;70705;-51
2023/09/01 01:44:42;;;;;;;30.90;12.20;;;;;;;19.54;100.00;100385.48;105561;1261;60393;-52
2023/09/01 01:47:11;;;;;;;25.20;10.80;;;;;;;19.58;100.00;100381.58;105647;1258;59971;-53
2023/09/01 01:49:40;;;;;;;24.90;11.30;;;;;;;19.60;100.00;100382.52;105604;1260;71651;-52
2023/09/01 01:52:08;;;;;;;30.90;12.50;;;;;;;19.62;100.00;100381.54;105580;1257;63584;-51
2023/09/01 01:54:36;;;;;;;24.80;11.00;;;;;;;19.62;100.00;100383.27;105622;1261;71663;-52
2023/09/01 01:57:04;;;;;;;24.90;11.00;;;;;;;19.64;100.00;100387.73;105540;1260;60567;-53
2023/09/01 01:59:32;;;;;;;23.20;11.20;;;;;;;19.66;100.00;100398.08;105548;1256;59715;-53
2023/09/01 02:03:15;;;;;;;29.10;12.50;;;;;;;19.71;100.00;100425.82;102772;1290;600714;-54
2023/09/01 02:05:43;;;;;;;32.80;12.40;;;;;;;19.72;100.00;100422.30;104866;1266;61598;-55
2023/09/01 02:08:10;;;;;;;30.40;12.60;;;;;;;19.73;100.00;100427.80;104881;1269;59238;-53
2023/09/01 03:13:00;;;;;;;23.20;12.40;;;;;;;19.32;100.00;100656.98;102809;1295;600158;-53
2023/09/01 03:15:28;;;;;;;32.20;11.60;;;;;;;19.34;100.00;100640.45;105168;1267;60580;-51
2023/09/01 03:17:55;;;;;;;27.40;11.20;;;;;;;19.37;100.00;100630.29;104847;1270;59448;-52
2023/09/01 03:20:23;;;;;;;24.80;11.40;;;;;;;19.44;100.00;100629.75;105088;1264;70929;-53
2023/09/01 03:22:51;;;;;;;21.20;10.70;;;;;;;19.66;100.00;100670.48;105075;1264;63700;-52
2023/09/01 03:25:19;;;;;;;32.80;11.80;;;;;;;19.90;100.00;100710.52;105177;1264;71492;-52
2023/09/01 03:27:48;;;;;;;30.60;11.60;;;;;;;19.99;100.00;100733.00;105305;1257;438862;-52
2023/09/01 03:30:16;;;;;;;24.50;11.40;;;;;;;20.01;100.00;100782.59;105583;1257;59951;-53
2023/09/01 03:32:45;;;;;;;20.90;11.80;;;;;;;20.02;100.00;100792.39;105635;1257;71241;-50
2023/09/01 03:35:12;;;;;;;30.70;12.70;;;;;;;20.03;100.00;100811.93;105620;1257;63084;-52
2023/09/01 03:37:41;;;;;;;23.50;12.20;;;;;;;20.05;100.00;100818.81;105654;1257;72636;-53
2023/09/01 03:40:10;;;;;;;24.70;12.40;;;;;;;20.07;100.00;100836.77;105647;1257;61632;-53
2023/09/01 03:42:38;;;;;;;25.90;13.00;;;;;;;20.07;100.00;100848.85;105687;1255;59934;-53
2023/09/01 03:45:06;;;;;;;36.50;12.70;;;;;;;20.07;100.00;100850.79;105588;1260;73050;-52
2023/09/01 03:47:34;;;;;;;29.10;12.80;;;;;;;20.06;100.00;100854.33;105656;1261;64344;-51
2023/09/01 03:50:03;;;;;;;28.30;13.60;;;;;;;20.06;100.00;100856.95;105613;1257;72613;-51
2023/09/01 03:52:31;;;;;;;26.30;12.90;;;;;;;20.05;100.00;100856.48;105653;1257;60380;-51
2023/09/01 03:55:00;;;;;;;25.00;12.10;;;;;;;20.04;100.00;100853.77;105596;1263;59567;-52
2023/09/01 03:57:28;;;;;;;33.50;13.00;;;;;;;20.02;100.00;100852.46;105664;1260;72819;-52
2023/09/01 03:59:55;;;;;;;25.20;11.60;;;;;;;20.01;100.00;100857.05;105561;1257;63802;-52
2023/09/01 04:02:24;;;;;;;21.50;11.30;;;;;;;20.01;100.00;100846.19;105646;1257;71426;-51
2023/09/01 04:04:51;;;;;;;25.10;11.90;;;;;;;20.03;100.00;100844.35;105605;1257;60418;-51
2023/09/01 04:07:20;;;;;;;24.90;11.20;;;;;;;20.05;100.00;100836.70;105612;1260;59813;-54
2023/09/01 04:09:48;;;;;;;19.90;10.80;;;;;;;20.09;100.00;100830.02;105580;1257;71795;-52
2023/09/01 04:12:16;;;;;;;18.10;11.50;;;;;;;20.14;100.00;100831.17;105623;1257;64125;-51
2023/09/01 04:14:44;;;;;;;24.00;11.70;;;;;;;20.20;100.00;100825.23;105449;1261;71424;-52
2023/09/01 04:17:12;;;;;;;23.40;10.20;;;;;;;20.27;100.00;100822.40;105565;1261;60453;-53
2023/09/01 04:19:40;;;;;;;17.00;10.50;;;;;;;20.34;100.00;100820.48;105492;1257;59545;-52
2023/09/01 04:22:08;;;;;;;20.20;11.20;;;;;;;20.41;100.00;100823.27;105595;1257;71961;-51
2023/09/01 04:24:36;;;;;;;21.20;11.20;;;;;;;20.48;100.00;100821.81;105536;1257;64812;-51
2023/09/01 04:27:04;;;;;;;19.10;10.60;;;;;;;20.57;100.00;100820.30;105569;1260;71454;-52
2023/09/01 04:29:31;;;;;;;20.60;9.80;;;;;;;20.68;100.00;100825.64;105609;1257;60374;-51
2023/09/01 04:31:59;;;;;;;20.90;10.80;;;;;;;20.81;100.00;100829.70;105616;1256;59545;-52
2023/09/01 04:34:27;;;;;;;25.40;10.80;;;;;;;20.96;100.00;100830.64;105576;1257;71834;-51
2023/09/01 04:36:56;;;;;;;23.40;9.80;;;;;;;21.11;100.00;100837.35;105566;1257;64468;-53
2023/09/01 04:39:23;;;;;;;22.00;10.40;;;;;;;21.27;100.00;100852.94;105409;1260;71376;-52
2023/09/01 04:41:51;;;;;;;23.20;10.00;;;;;;;21.41;100.00;100856.50;105552;1257;61657;-51
2023/09/01 04:44:19;;;;;;;21.50;10.40;;;;;;;21.53;100.00;100817.90;105556;1257;59655;-52
2023/09/01 04:46:46;;;;;;;29.30;10.10;;;;;;;21.63;100.00;100697.77;105468;1258;71822;-51
2023/09/01 04:49:14;;;;;;;29.40;10.70;;;;;;;21.69;100.00;100513.75;105526;1257;63199;-55
2023/09/01 04:51:42;;;;;;;24.30;10.50;;;;;;;21.74;100.00;100356.31;105393;1262;72725;-53
2023/09/01 04:54:09;;;;;;;26.60;11.30;;;;;;;21.78;100.00;100257.86;105524;1256;59751;-58
2023/09/01 04:56:37;;;;;;;29.60;10.80;;;;;;;21.78;100.00;100141.59;105550;1257;60013;-54
2023/09/01 04:59:05;;;;;;;30.40;11.30;;;;;;;21.80;100.00;100099.12;105566;1257;71790;-53
2023/09/01 05:01:32;;;;;;;25.70;10.20;;;;;;;21.82;100.00;100065.63;105594;1257;63263;-51
2023/09/01 05:04:00;;;;;;;25.80;10.20;;;;;;;21.76;100.00;99981.98;105610;1257;71847;-52
2023/09/01 05:06:28;;;;;;;24.30;9.40;;;;;;;21.65;100.00;99994.19;105522;1260;59635;-51
2023/09/01 05:08:56;;;;;;;26.80;10.40;;;;;;;21.53;100.00;100038.36;105555;1257;59940;-53
2023/09/01 05:11:24;;;;;;;22.70;10.10;;;;;;;21.44;100.00;100042.98;105592;1261;72090;-51
2023/09/01 05:13:51;;;;;;;21.60;10.30;;;;;;;21.42;100.00;100041.77;105614;1258;63228;-52
2023/09/01 05:16:19;;;;;;;34.70;10.70;;;;;;;21.39;100.00;100057.39;105532;1257;71730;-52
2023/09/01 05:18:47;;;;;;;25.20;9.80;;;;;;;21.44;100.00;100048.48;105571;1262;60466;-53
2023/09/01 05:21:14;;;;;;;22.50;9.50;;;;;;;21.47;100.00;100047.87;105676;1258;59685;-52
2023/09/01 05:23:43;;;;;;;25.10;9.70;;;;;;;21.51;100.00;100055.27;105582;1257;71865;-51
2023/09/01 05:26:11;;;;;;;33.20;10.10;;;;;;;21.58;100.00;100051.72;105609;1256;63209;-52
2023/09/01 05:28:39;;;;;;;17.00;9.30;;;;;;;21.65;100.00;100047.85;105560;1263;72628;-53
2023/09/01 05:31:07;;;;;;;18.50;10.00;;;;;;;21.70;100.00;100050.21;105621;1256;60105;-52
2023/09/01 05:33:41;;;;;;;29.60;10.90;;;;;;;21.71;100.00;100060.97;105606;1260;59742;-51
2023/09/01 05:36:08;;;;;;;23.90;9.50;;;;;;;21.73;100.00;100077.34;105558;1257;72982;-51
2023/09/01 05:38:37;;;;;;;18.60;9.10;;;;;;;21.73;100.00;100089.08;105607;1256;64450;-51
2023/09/01 05:41:10;;;;;;;23.80;9.70;;;;;;;21.78;100.00;100093.63;105540;1262;72642;-53
2023/09/01 05:43:38;;;;;;;22.40;8.90;;;;;;;21.84;100.00;100095.87;105503;1263;60149;-52
2023/09/01 05:46:06;;;;;;;26.40;9.80;;;;;;;21.90;100.00;100099.70;105600;1258;59950;-52
2023/09/01 05:48:36;;;;;;;22.80;9.40;;;;;;;21.95;100.00;100111.23;105608;1260;72946;-52
2023/09/01 05:51:04;;;;;;;15.90;8.90;;;;;;;21.99;100.00;100117.66;105608;1256;64373;-51
2023/09/01 05:53:32;;;;;;;23.30;9.10;;;;;;;21.99;100.00;100126.98;105605;1258;71400;-51
2023/09/01 05:55:59;;;;;;;23.60;9.30;;;;;;;21.98;100.00;100145.33;105649;1257;59727;-51
2023/09/01 05:58:29;;;;;;;26.50;9.30;;;;;;;21.99;100.00;100141.36;105589;1261;59599;-52
2023/09/01 06:00:56;;;;;;;16.60;8.70;;;;;;;22.03;100.00;100139.11;105682;1258;71800;-52
2023/09/01 06:03:24;;;;;;;15.40;8.50;;;;;;;22.04;100.00;100154.34;105598;1256;62907;-53
2023/09/01 06:05:52;;;;;;;20.40;9.00;;;;;;;22.06;100.00;100144.02;105608;1258;71341;-51
2023/09/01 06:08:20;;;;;;;18.60;8.80;;;;;;;22.06;100.00;100143.34;105556;1257;61758;-52
2023/09/01 06:10:47;;;;;;;21.20;8.60;;;;;;;22.06;100.00;100143.83;105683;1260;59609;-55
2023/09/01 06:13:15;;;;;;;18.30;8.60;;;;;;;22.11;100.00;100138.39;105605;1257;73383;-51
2023/09/01 06:15:42;;;;;;;17.90;8.80;;;;;;;22.18;100.00;100137.89;105543;1256;64874;-51
2023/09/01 06:18:10;;;;;;;16.60;8.90;;;;;;;22.23;100.00;100147.89;105600;1257;71393;-52
2023/09/01 06:20:38;;;;;;;21.40;9.00;;;;;;;22.24;100.00;100151.73;105532;1263;60408;-51
2023/09/01 06:23:06;;;;;;;17.70;8.00;;;;;;;22.28;100.00;100149.13;105619;1260;59633;-51
2023/09/01 06:25:33;;;;;;;15.90;7.70;;;;;;;22.36;100.00;100140.81;105615;1260;73091;-52
2023/09/01 06:28:01;;;;;;;19.10;8.20;;;;;;;22.45;100.00;100150.77;105624;1257;64021;-51
2023/09/01 06:30:29;;;;;;;19.70;8.00;;;;;;;22.55;100.00;100150.73;105546;1257;71681;-51
2023/09/01 06:32:56;;;;;;;21.90;8.80;;;;;;;22.66;100.00;100149.92;105606;1257;59752;-52
2023/09/01 06:35:24;;;;;;;19.50;8.70;;;;;;;22.76;100.00;100159.02;105566;1260;59545;-50
2023/09/01 06:37:53;;;;;;;25.50;9.10;;;;;;;22.90;100.00;100165.59;105610;1260;71679;-53
2023/09/01 06:40:21;;;;;;;12.70;8.00;;;;;;;23.01;100.00;100195.36;105601;1257;63665;-50
2023/09/01 06:42:48;;;;;;;20.10;8.30;;;;;;;23.09;100.00;100217.45;105599;1257;71101;-53
2023/09/01 06:45:16;;;;;;;19.10;7.90;;;;;;;23.12;100.00;100241.88;105785;1254;59723;-51
2023/09/01 06:47:44;;;;;;;17.50;8.70;;;;;;;23.14;100.00;100252.50;105813;1257;59618;-53
2023/09/01 06:50:12;;;;;;;22.00;9.10;;;;;;;23.18;100.00;100253.54;105797;1254;71813;-53
2023/09/01 06:52:39;;;;;;;26.90;8.70;;;;;;;23.22;100.00;100257.51;105901;1257;64347;-52
2023/09/01 06:55:08;;;;;;;24.90;9.20;;;;;;;23.32;100.00;100249.09;105729;1254;71494;-55
2023/09/01 06:57:36;;;;;;;13.00;8.10;;;;;;;23.37;100.00;100248.30;105923;1254;59772;-52
2023/09/01 07:00:04;;;;;;;19.40;8.90;;;;;;;23.50;100.00;100239.42;105918;1254;59532;-50
2023/09/01 07:02:32;;;;;;;19.90;8.10;;;;;;;23.65;100.00;100246.05;105939;1254;71855;-51
2023/09/01 07:05:00;;;;;;;18.00;8.90;;;;;;;23.78;100.00;100258.10;105909;1254;63999;-52
2023/09/01 07:07:28;;;;;;;24.70;8.00;;;;;;;23.88;100.00;100262.77;105907;1257;73069;-51
2023/09/01 07:09:56;;;;;;;15.70;8.30;;;;;;;24.01;100.00;100270.27;105871;1256;59644;-51
2023/09/01 07:12:23;;;;;;;19.40;8.50;;;;;;;24.13;100.00;100281.50;105727;1257;59531;-57
2023/09/01 07:14:51;;;;;;;24.30;8.90;;;;;;;24.17;100.00;100294.42;105881;1254;72108;-54
2023/09/01 07:17:21;;;;;;;16.80;8.20;;;;;;;24.19;100.00;100309.89;105916;1257;64319;-57
2023/09/01 07:19:49;;;;;;;22.00;8.00;;;;;;;24.29;100.00;100312.52;105892;1257;72578;-55
2023/09/01 07:22:17;;;;;;;14.30;7.70;;;;;;;24.38;100.00;100309.16;105905;1254;60537;-52
2023/09/01 07:24:45;;;;;;;17.60;8.40;;;;;;;24.41;99.89;100327.08;105888;1252;60469;-55
2023/09/01 07:27:13;;;;;;;16.00;8.70;;;;;;;24.46;98.42;100345.05;105784;1257;73809;-57
2023/09/01 07:29:41;;;;;;;17.60;7.90;;;;;;;24.57;99.47;100354.73;105874;1254;63241;-52
2023/09/01 07:32:09;;;;;;;19.60;8.80;;;;;;;24.71;96.55;100355.08;105760;1255;71463;-54
2023/09/01 07:34:37;;;;;;;15.90;8.90;;;;;;;24.85;97.33;100362.45;105913;1256;60572;-51
2023/09/01 07:37:06;;;;;;;20.70;8.60;;;;;;;25.08;96.99;100359.39;105915;1254;60339;-53
2023/09/01 07:39:35;;;;;;;17.10;8.40;;;;;;;25.31;89.41;100338.47;105817;1260;73823;-53
2023/09/01 07:42:04;;;;;;;18.70;8.40;;;;;;;25.43;84.79;100335.85;105899;1257;64328;-53
2023/09/01 07:44:32;;;;;;;22.00;9.50;;;;;;;25.57;84.62;100350.67;105909;1254;71366;-52
2023/09/01 07:46:59;;;;;;;17.20;8.30;;;;;;;25.83;82.36;100338.24;105791;1254;60450;-51
2023/09/01 07:49:27;;;;;;;14.60;7.90;;;;;;;26.03;79.83;100334.45;105875;1255;60338;-51
2023/09/01 07:51:55;;;;;;;17.20;7.90;;;;;;;26.00;77.27;100327.05;105874;1257;73814;-53
2023/09/01 07:54:22;;;;;;;15.40;8.00;;;;;;;25.94;79.71;100364.35;105876;1253;64603;-52
2023/09/01 07:56:50;;;;;;;13.70;7.40;;;;;;;25.95;78.40;100349.34;105780;1254;71923;-51
2023/09/01 07:59:17;;;;;;;14.40;8.10;;;;;;;25.94;79.06;100363.27;105901;1252;60398;-52
2023/09/01 08:01:46;;;;;;;13.90;7.70;;;;;;;25.90;77.38;100356.35;105789;1258;60434;-52
2023/09/01 08:04:13;;;;;;;35.30;19.60;;;;;;;25.79;78.38;100376.70;105937;1253;74351;-51
2023/09/01 08:06:43;;;;;;;25.20;11.90;;;;;;;25.68;77.78;100378.56;105774;1253;63504;-52
2023/09/01 08:09:11;;;;;;;17.70;9.40;;;;;;;25.65;78.47;100384.20;105881;1255;71431;-52
2023/09/01 08:11:38;;;;;;;24.40;9.20;;;;;;;25.69;80.05;100386.23;105794;1254;60877;-53
2023/09/01 08:14:06;;;;;;;15.70;8.20;;;;;;;25.72;85.07;100404.50;105898;1253;60348;-51
2023/09/01 08:16:34;;;;;;;21.80;8.90;;;;;;;25.86;83.46;100387.33;105819;1252;74327;-53
2023/09/01 08:19:03;;;;;;;24.50;10.00;;;;;;;25.96;79.79;100371.77;105942;1256;64307;-52
2023/09/01 08:21:31;;;;;;;14.20;8.90;;;;;;;26.04;77.34;100375.53;105866;1254;72657;-52
2023/09/01 08:23:58;;;;;;;61.80;28.00;;;;;;;26.20;76.78;100381.10;105898;1254;60497;-52
2023/09/01 08:26:26;;;;;;;20.40;11.00;;;;;;;26.43;75.24;100371.56;105821;1254;61373;-52
2023/09/01 08:28:54;;;;;;;22.10;8.60;;;;;;;26.59;71.49;100340.24;105834;1252;73847;-53
2023/09/01 08:31:22;;;;;;;18.90;9.10;;;;;;;26.74;72.15;100364.06;105803;1253;63104;-53
2023/09/01 08:33:49;;;;;;;34.80;15.10;;;;;;;26.99;71.29;100352.84;105869;1254;72544;-54
2023/09/01 08:36:17;;;;;;;21.50;10.80;;;;;;;27.17;69.78;100337.09;105854;1254;60418;-53
2023/09/01 08:38:45;;;;;;;22.70;8.60;;;;;;;27.21;67.79;100310.69;105938;1257;60425;-51
2023/09/01 08:41:13;;;;;;;21.80;8.40;;;;;;;27.22;68.79;100346.52;105849;1253;72767;-52
2023/09/01 08:43:42;;;;;;;17.50;8.00;;;;;;;27.17;66.52;100303.27;105871;1254;63225;-54
2023/09/01 08:46:10;;;;;;;13.20;8.50;;;;;;;26.90;66.45;100333.81;105895;1254;71423;-53
2023/09/01 08:48:41;;;;;;;17.00;8.70;;;;;;;26.77;68.84;100388.04;105907;1254;60533;-52
2023/09/01 08:51:09;;;;;;;13.20;8.10;;;;;;;26.87;69.28;100387.91;105810;1259;60335;-54
2023/09/01 08:53:39;;;;;;;17.40;8.70;;;;;;;27.11;70.46;100401.02;105639;1258;71868;-53
2023/09/01 08:56:07;;;;;;;12.70;8.10;;;;;;;27.33;68.36;100357.42;105750;1257;63090;-53
2023/09/01 08:58:36;;;;;;;17.10;8.30;;;;;;;27.37;66.23;100321.62;105888;1257;71424;-54
2023/09/01 09:01:04;;;;;;;16.70;8.20;;;;;;;27.26;66.62;100351.70;105905;1254;60536;-51
2023/09/01 09:03:32;;;;;;;13.10;8.10;;;;;;;27.31;66.91;100358.88;105937;1254;60338;-54
2023/09/01 09:06:03;;;;;;;14.20;7.50;;;;;;;27.32;68.42;100394.76;105803;1252;72587;-54
2023/09/01 09:08:30;;;;;;;14.90;8.50;;;;;;;27.29;67.18;100364.55;105932;1254;63278;-52
2023/09/01 09:10:58;;;;;;;14.50;8.20;;;;;;;27.33;70.62;100420.45;105848;1256;72643;-51
2023/09/01 09:13:28;;;;;;;24.00;8.00;;;;;;;27.47;69.15;100383.30;105895;1256;60450;-51
2023/09/01 09:16:13;;;;;;;17.00;8.60;;;;;;;27.66;69.94;100399.47;105926;1252;60402;-51
2023/09/01 09:18:42;;;;;;;19.70;8.10;;;;;;;27.91;68.29;100368.65;105867;1254;72647;-52
2023/09/01 09:21:26;;;;;;;15.70;7.80;;;;;;;28.07;67.07;100351.38;105871;1254;63269;-52
2023/09/01 09:24:03;;;;;;;15.60;8.40;;;;;;;28.15;65.10;100309.67;105909;1254;72598;-54
2023/09/01 09:26:59;;;;;;;15.70;7.80;;;;;;;28.03;65.78;100351.36;105808;1257;60470;-53
2023/09/01 09:29:26;;;;;;;26.20;8.70;;;;;;;28.12;64.41;100314.38;105901;1257;60328;-52
2023/09/01 09:31:54;;;;;;;13.10;7.30;;;;;;;28.21;64.17;100318.88;105702;1254;72605;-54
2023/09/01 09:34:22;;;;;;;16.40;7.00;;;;;;;28.31;63.61;100308.69;105863;1254;63098;-54
2023/09/01 09:36:50;;;;;;;22.40;8.40;;;;;;;28.50;64.41;100334.72;105808;1257;71412;-55
2023/09/01 09:39:25;;;;;;;20.00;8.00;;;;;;;28.74;64.56;100335.45;105807;1254;60437;-52
2023/09/01 09:41:54;;;;;;;17.10;7.70;;;;;;;28.85;61.51;100241.27;105920;1252;60424;-53
2023/09/01 09:44:33;;;;;;;14.70;7.50;;;;;;;28.87;62.04;100274.36;105867;1254;72564;-51
2023/09/01 09:47:10;;;;;;;20.60;8.40;;;;;;;29.07;60.47;100217.95;105835;1259;63115;-52
2023/09/01 09:49:38;;;;;;;14.60;7.40;;;;;;;29.19;58.69;100152.08;105903;1254;71373;-52
2023/09/01 09:52:07;;;;;;;14.70;7.10;;;;;;;29.22;59.27;100214.84;105842;1253;60444;-53
2023/09/01 09:54:38;;;;;;;12.70;7.30;;;;;;;29.23;58.12;100168.71;105901;1253;60325;-53
2023/09/01 09:57:07;;;;;;;16.10;6.90;;;;;;;29.01;57.94;100180.84;105673;1259;72704;-54
2023/09/01 09:59:43;;;;;;;23.00;7.00;;;;;;;28.83;59.29;100278.83;105713;1254;64119;-53
2023/09/01 10:02:30;;;;;;;19.90;7.20;;;;;;;28.77;58.89;100235.88;105878;1254;72588;-53
2023/09/01 10:04:57;;;;;;;9.00;6.20;;;;;;;28.73;59.65;100275.17;105852;1254;60450;-53
2023/09/01 10:07:26;;;;;;;21.50;7.50;;;;;;;28.75;60.77;100315.83;105909;1254;62121;-52
2023/09/01 10:09:54;;;;;;;23.20;6.50;;;;;;;28.88;61.04;100305.73;105702;1260;72208;-53
2023/09/01 10:12:21;;;;;;;17.00;6.40;;;;;;;28.98;58.87;100204.79;105734;1254;64414;-52
2023/09/01 10:14:50;;;;;;;27.50;5.90;;;;;;;28.92;59.03;100235.96;105959;1254;72697;-51
2023/09/01 10:17:18;;;;;;;14.40;5.70;;;;;;;28.75;58.61;100231.20;105926;1254;60543;-54
2023/09/01 10:19:49;;;;;;;56.00;7.90;;;;;;;28.46;58.98;100263.92;105695;1259;60429;-53
2023/09/01 10:22:17;;;;;;;15.90;6.40;;;;;;;28.41;61.13;100350.98;105882;1254;72556;-53
2023/09/01 10:25:10;;;;;;;31.60;6.80;;;;;;;28.58;59.92;100292.06;105909;1254;63407;-52
2023/09/01 10:27:38;;;;;;;13.90;6.10;;;;;;;28.61;59.94;100298.88;105834;1255;72701;-53
2023/09/01 10:30:28;;;;;;;11.40;6.00;;;;;;;28.70;61.23;100342.07;105856;1254;60454;-53
2023/09/01 10:33:13;;;;;;;12.20;6.30;;;;;;;28.72;59.53;100265.35;105894;1259;60332;-53
2023/09/01 10:35:57;;;;;;;9.10;6.60;;;;;;;28.61;59.27;100271.36;105880;1254;72576;-54
2023/09/01 10:38:35;;;;;;;15.10;6.10;;;;;;;28.64;59.22;100269.36;105963;1256;63093;-53
2023/09/01 10:41:03;;;;;;;17.00;6.00;;;;;;;28.73;59.37;100277.89;105896;1257;70811;-52
2023/09/01 10:43:37;;;;;;;18.20;6.20;;;;;;;28.61;59.04;100267.11;105891;1257;60453;-52
2023/09/01 10:46:14;;;;;;;16.60;6.30;;;;;;;28.46;59.90;100309.90;105898;1256;60394;-54
2023/09/01 10:48:49;;;;;;;11.70;5.80;;;;;;;28.46;59.27;100277.80;105889;1257;73833;-55
2023/09/01 10:51:21;;;;;;;9.40;6.20;;;;;;;28.48;59.46;100285.36;105667;1253;64376;-55
2023/09/01 10:53:56;;;;;;;15.70;5.80;;;;;;;28.59;59.15;100262.89;105928;1254;71431;-54
2023/09/01 10:56:24;;;;;;;15.90;5.40;;;;;;;28.57;61.01;100343.46;105906;1254;60517;-53
2023/09/01 10:58:54;;;;;;;10.40;5.60;;;;;;;28.77;60.97;100324.17;105872;1258;60424;-53
2023/09/01 11:01:29;;;;;;;29.40;6.50;;;;;;;28.93;59.55;100255.71;105865;1255;72650;-52
2023/09/01 11:04:17;;;;;;;;;;;;;;;29.06;60.26;100296.28;105856;1259;63105;-53
2023/09/01 11:07:00;;;;;;;8.00;5.40;;;;;;;29.24;60.03;100276.77;105645;1254;72074;-53
2023/09/01 11:09:32;;;;;;;8.40;4.70;;;;;;;29.31;58.44;100203.10;105895;1257;60428;-54
2023/09/01 11:12:08;;;;;;;13.20;5.00;;;;;;;29.05;56.56;100114.70;105888;1254;60472;-53
2023/09/01 11:14:37;;;;;;;14.20;5.20;;;;;;;28.85;59.06;100273.05;105896;1255;72638;-54
2023/09/01 11:17:04;;;;;;;14.50;5.10;;;;;;;28.86;58.03;100213.95;105931;1257;64358;-54
2023/09/01 11:19:46;;;;;;;9.10;4.90;;;;;;;28.86;57.64;100205.95;105863;1255;71451;-53
2023/09/01 11:22:14;;;;;;;15.20;4.90;;;;;;;28.81;58.94;100282.57;105893;1255;60485;-54
2023/09/01 11:24:45;;;;;;;18.80;5.20;;;;;;;28.90;58.05;100209.71;105720;1260;60460;-53
2023/09/01 11:27:13;;;;;;;31.60;7.00;;;;;;;28.86;57.39;100185.52;105817;1254;72658;-52
2023/09/01 11:29:40;;;;;;;17.50;5.50;;;;;;;28.75;58.52;100265.73;105892;1257;63212;-53
2023/09/01 11:32:09;;;;;;;12.50;5.10;;;;;;;28.75;62.74;100391.48;105848;1254;71430;-53
2023/09/01 11:34:38;;;;;;;11.90;5.20;;;;;;;28.57;66.34;100410.70;105911;1254;60462;-53
2023/09/01 11:37:06;;;;;;;30.30;6.30;;;;;;;28.39;70.11;100406.58;106002;1256;60530;-53
2023/09/01 11:39:33;;;;;;;11.00;5.30;;;;;;;28.28;75.01;100388.61;105901;1252;72606;-52
2023/09/01 11:42:01;;;;;;;19.80;5.80;;;;;;;28.25;76.31;100359.45;105879;1257;64657;-52
2023/09/01 11:44:30;;;;;;;12.40;5.00;;;;;;;28.12;82.71;100362.80;105850;1254;72175;-54
2023/09/01 11:46:58;;;;;;;9.50;4.70;;;;;;;28.19;90.23;100355.46;105865;1258;60539;-54
2023/09/01 11:49:26;;;;;;;23.60;5.50;;;;;;;28.23;89.78;100345.48;105849;1254;60414;-54
2023/09/01 11:51:58;;;;;;;15.40;5.00;;;;;;;28.18;92.99;100348.27;105888;1255;73759;-53
2023/09/01 11:54:39;;;;;;;16.60;4.70;;;;;;;28.20;88.71;100346.81;105695;1267;63137;-53
2023/09/01 11:57:14;;;;;;;6.30;4.20;;;;;;;28.20;87.09;100359.08;105872;1256;71691;-53
2023/09/01 11:59:46;;;;;;;7.80;4.90;;;;;;;28.19;79.41;100348.27;105834;1255;60533;-55
2023/09/01 12:02:15;;;;;;;14.10;4.80;;;;;;;28.45;67.48;100268.52;105881;1257;60378;-57
2023/09/01 12:04:48;;;;;;;8.00;4.50;;;;;;;28.60;64.16;100250.42;105837;1257;73155;-54
2023/09/01 12:07:26;;;;;;;26.90;5.70;;;;;;;28.72;70.32;100388.72;105932;1257;64346;-53
2023/09/01 12:09:54;;;;;;;12.90;4.50;;;;;;;28.53;80.13;100428.17;105915;1257;72629;-52
2023/09/01 12:12:22;;;;;;;36.90;5.60;;;;;;;28.54;87.62;100420.75;105868;1259;60530;-53
2023/09/01 12:14:50;;;;;;;17.10;4.60;;;;;;;28.54;85.37;100411.33;105882;1254;60474;-54
2023/09/01 12:17:19;;;;;;;25.20;5.70;;;;;;;28.40;86.20;100410.02;105689;1255;72638;-53
2023/09/01 12:19:49;;;;;;;15.00;5.20;;;;;;;28.14;97.34;100421.15;105896;1254;63233;-53
2023/09/01 12:22:18;;;;;;;8.70;3.90;;;;;;;28.02;100.00;100413.33;105900;1254;72601;-53
2023/09/01 12:24:53;;;;;;;67.20;6.40;;;;;;;27.96;99.97;100396.58;105905;1257;60411;-53
2023/09/01 12:27:21;;;;;;;;;;;;;;;27.77;100.00;100403.23;105946;1257;60360;-51
2023/09/01 12:29:48;;;;;;;34.70;5.80;;;;;;;27.63;100.00;100398.35;105885;1260;73624;-53